Tiempo atmosférico en la estación meteorológica de La Molina, Girona (1704 m.)



Fecha
DESCASC
Temp. máxima en grados centígrados (hora)
DESCASC
Temp. mínima en grados centígrados (hora)
DESCASC
Temp. media en grados centígrados
DESCASC
Racha de viento máxima en m/sg (hora)
DESCASC
Velocidad máxima media en intervalos de 10 minutos(hora)
DESCASC
Precipitaciones diarias en mm
DESCASC
Precipitaciones de 00:00 a 06:00 en mm
DESCASC
Precipitaciones de 06:00 a 12:00 en mm
DESCASC
Precipitaciones de 12:00 a 18:00 en mm
DESCASC
Precipitaciones de 18:00 a 24:00 en mm
DESCASC
23-06-2019 24.3 (17:50) 9.6 (05:50) 16.9 10 (20:50) 6.67 (21:10) 0 0 0 0 0
22-06-2019 20.6 (17:20) 7.4 (04:00) 14 8.89 (14:50) 4.17 (14:50) 0 0 0 0 0
21-06-2019 16 (17:50) 8.1 (00:30) 12.1 7.5 (05:30) 3.33 (02:10) 5.2 0 0 5.2 0
20-06-2019 19.2 (15:00) 8.3 (00:00) 13.8 14.44 (17:30) 5.83 (17:30) 17.2 3.2 0 8.8 5.2
19-06-2019 21.4 (18:30) 9.9 (00:00) 15.6 10.83 (14:30) 4.44 (03:50) 0 0 0 0 0
18-06-2019 22.2 (15:40) 9.8 (00:00) 16 9.72 (17:20) 5.28 (22:10) 0 0 0 0 0
17-06-2019 21.2 (16:20) 8 (00:00) 14.6 10 (16:30) 5.28 (20:30) 0 0 0 0 0
16-06-2019 19.9 (17:20) 4.8 (00:00) 12.3 8.06 (21:00) 4.17 (17:40) 0 0 0 0 0
15-06-2019 17.6 (16:30) 7.8 (00:00) 12.7 10 (14:10) 4.72 (03:10) 0 0 0 0 0
14-06-2019 18.4 (16:20) 10.2 (00:00) 14.3 9.44 (02:20) 5.56 (02:20) 0.6 0 0.6 0 0
13-06-2019 16.5 (16:00) 2.6 (00:00) 9.5 10.28 (13:40) 4.17 (13:00) 0 0 0 0 0
12-06-2019 12.6 (17:50) -0.9 (-00:0) 5.9 9.17 (17:20) 4.72 (22:30) 0 0 0 0 0
11-06-2019 8.4 (00:10) 0.4 (00:00) 4.4 10.56 (04:10) 5.28 (04:10) 33.8 4.6 19.8 6.8 2.6
10-06-2019 15.8 (15:20) 7.3 (00:00) 11.6 9.44 (16:20) 5 (10:40) 0.4 0 0.4 0 0
09-06-2019 19.7 (18:30) 10.6 (00:00) 15.2 10.28 (08:50) 5 (11:30) 0 0 0 0 0
08-06-2019 18.2 (15:40) 3.5 (00:00) 10.9 10.83 (20:20) 6.67 (20:20) 0 0 0 0 0
07-06-2019 15.6 (18:10) 5.4 (00:00) 10.5 15.56 (00:30) 5.28 (13:50) 0 0 0 0 0
06-06-2019 12.7 (16:20) 2.1 (00:00) 7.4 15 (20:30) 5.83 (23:40) 0 0 0 0 0
05-06-2019 15 (12:00) 3.4 (00:00) 9.2 11.39 (12:30) 6.11 (05:50) 0 0 0 0 0
04-06-2019 21.3 (16:00) 11.7 (00:00) 16.5 10.56 (15:30) 4.72 (21:20) 0 0 0 0 0
03-06-2019 21 (13:30) 9.5 (00:00) 15.3 8.89 (17:30) 5 (17:30) 0 0 0 0 0
02-06-2019 21.5 (14:20) 8.2 (00:00) 14.8 10.56 (14:40) 5 (15:50) 4.8 0 0 4.6 0.2
01-06-2019 20.2 (16:30) 8.4 (00:00) 14.3 9.17 (11:40) 5.28 (20:20) 0 0 0 0 0
31-05-2019 18.4 (15:30) 5.4 (00:00) 11.9 8.33 (14:50) 4.72 (20:40) 0 0 0 0 0
30-05-2019 17.8 (18:10) 2.5 (00:00) 10.1 8.06 (16:50) 4.17 (17:10) 0 0 0 0 0
29-05-2019 11.4 (17:00) 1.1 (00:00) 6.2 10.56 (07:00) 4.44 (08:50) 0 0 0 0 0
28-05-2019 14.7 (14:00) 3.1 (00:00) 8.9 9.72 (17:00) 4.72 (15:50) 0 0 0 0 0
27-05-2019 15.9 (15:30) 3.4 (00:00) 9.6 8.06 (18:00) 4.44 (15:40) 0 0 0 0 0
26-05-2019 -- (--) -- (--) -- -- (--) -- (--) -- -- -- -- --
25-05-2019 -- (--) -- (--) -- -- (--) -- (--) -- -- -- -- --

Gráficas

Temp. máximas Temp. mínimas Temp. medias Precipitaciones Rachas de viento máximas Velocidades máximas media en intervalos de 10 minutos

Datos horarios

Fecha y hora oficial Temperatura (ºC) Velocidad del viento (km/h) Dirección del viento Racha (km/h) Dirección de racha Precipitación (mm) Presión (hPa) Tendencia (hPa) Humedad (%)
2019-06-23 23:00:00 15.9 4 Sudeste 21 Sudeste 0 835 1.2 67
2019-06-23 22:00:00 17.8 15 Sudeste 36 Sudeste 0 834.5 1.1 60
2019-06-23 21:00:00 19.2 22 Sudeste 36 Sur 0 834.1 0.7 60
2019-06-23 20:00:00 21.8 11 Sudoeste 27 Sudoeste 0 833.8 0.4 46
2019-06-23 19:00:00 22.9 10 Sudoeste 26 Sudoeste 0 833.4 -0.2 43
2019-06-23 18:00:00 24.2 5 Sudoeste 27 Sudoeste 0 833.4 -0.2 45
2019-06-23 17:00:00 24 9 Sudoeste 31 Sudoeste 0 833.4 0 46
2019-06-23 16:00:00 22.9 9 Sudoeste 26 Sudoeste 0 833.6 0.2 45
2019-06-23 15:00:00 22.3 10 Sur 33 Noroeste 0 833.6 0.3 50
2019-06-23 14:00:00 22.2 10 Oeste 26 Noroeste 0 833.4 0.1 47
2019-06-23 13:00:00 21.3 11 Norte 29 Noroeste 0 833.4 0.2 54
2019-06-23 12:00:00 20.2 11 Norte 21 Noroeste 0 833.3 0.3 57
2019-06-23 11:00:00 19.7 5 Norte 12 Norte 0 833.3 0.6 54
2019-06-23 10:00:00 18.3 5 Noroeste 10 Norte 0 833.2 0.6 55
2019-06-23 09:00:00 16 0 Calma 3 Sudeste 0 833 0.3 63
2019-06-23 08:00:00 13.4 2 Sur 7 Sudeste 0 832.7 0 67
2019-06-23 07:00:00 10.2 5 Este 9 Sudeste 0 832.6 0 76
2019-06-23 06:00:00 9.7 4 Sudeste 10 Sudeste 0 832.7 -0.4 76
2019-06-23 05:00:00 10.4 8 Sudeste 11 Sudeste 0 832.7 -0.5 74
2019-06-23 04:00:00 10.7 8 Sudeste 11 Sudeste 0 832.6 -0.6 73
2019-06-23 03:00:00 11.1 4 Este 12 Sudeste 0 833.1 0 71
2019-06-23 02:00:00 11.6 4 Sudeste 10 Sudeste 0 833.2 0.2 70
2019-06-23 01:00:00 12.1 5 Sudeste 10 Sudeste 0 833.2 0.5 68
2019-06-23 00:00:00 12.2 6 Sudeste 15 Sur 0 833.1 0.5 68
2019-06-22 23:00:00 14.3 8 Sur 25 Sur 0 833 0.6 58
2019-06-22 22:00:00 14.8 13 Sur 21 Sudeste 0 832.7 0.6 58
2019-06-22 21:00:00 17.4 4 Sudoeste 23 Sudoeste 0 832.6 0.5 56
2019-06-22 20:00:00 19.1 10 Sudoeste 25 Sudoeste 0 832.4 0.2 51
2019-06-22 19:00:00 20 8 Sudoeste 27 Sudoeste 0 832.1 -0.2 49
2019-06-22 18:00:00 19.8 12 Sudoeste 24 Sudoeste 0 832.1 -0.3 48
2019-06-22 17:00:00 19.9 11 Sudoeste 26 Sudeste 0 832.2 -0.4 52
2019-06-22 16:00:00 19.9 10 Sudoeste 30 Sur 0 832.3 -0.3 53
2019-06-22 15:00:00 18.3 14 Sur 32 Sudoeste 0 832.4 -0.1 53
2019-06-22 14:00:00 17.7 9 Sudeste 27 Este 0 832.6 0.2 60
2019-06-22 13:00:00 17 8 Norte 23 Noroeste 0 832.6 0.2 48
2019-06-22 12:00:00 15.8 12 Noroeste 28 Noroeste 0 832.5 0.2 56
2019-06-22 11:00:00 14.2 11 Noroeste 31 Noroeste 0 832.4 0.3 65
2019-06-22 10:00:00 13.2 6 Noroeste 16 Noroeste 0 832.4 0.4 71
2019-06-22 09:00:00 12.6 8 Este 21 Sudoeste 0 832.3 0.4 69
2019-06-22 08:00:00 10.2 6 Noroeste 21 Norte 0 832.1 0.1 80
2019-06-22 07:00:00 9.7 9 Oeste 21 Noroeste 0 832 -0.3 88
2019-06-22 06:00:00 9.1 9 Este 15 Nordeste 0 831.9 -0.8 91
2019-06-22 05:00:00 7.9 6 Sudeste 10 Sudeste 0 832 -1 94
2019-06-22 04:00:00 7.4 6 Sudeste 11 Este 0 832.3 -0.7 93
2019-06-22 03:00:00 7.8 6 Sudeste 10 Sudeste 0 832.7 -0.2 92
2019-06-22 02:00:00 7.9 6 Sudeste 9 Sudeste 0 833 0 91
2019-06-22 01:00:00 8.9 4 Este 10 Sudeste 0 833 0.4 93
2019-06-22 00:00:00 9.2 5 Sudeste 11 Sudeste 0 832.9 0.6 91
2019-06-21 23:00:00 10.5 4 Este 9 Sudoeste 0 833 1.2 88
2019-06-21 22:00:00 10.8 5 Sur 11 Este 0 832.6 1 86
2019-06-21 21:00:00 12 6 Sudoeste 17 Sur 0 832.3 0.7 82
2019-06-21 20:00:00 13.4 9 Sur 21 Sur 0 831.8 0.1 75
2019-06-21 19:00:00 14.2 6 Sur 15 Sudeste 0 831.6 -0.2 72
2019-06-21 18:00:00 15.1 5 Sudoeste 15 Sudoeste 0 831.6 -0.5 67
2019-06-21 17:00:00 12.8 5 Norte 22 Sudoeste 0.2 831.7 0 84
2019-06-21 16:00:00 13.5 5 Noroeste 13 Nordeste 0 831.8 0 85
2019-06-21 15:00:00 12.9 6 Este 15 Este 4.8 832.1 -0.6 86
2019-06-21 14:00:00 13.2 3 Noroeste 12 Noroeste 0.2 831.7 0.1 83
2019-06-21 13:00:00 11.7 6 Noroeste 15 Norte 0 831.8 0.3 88
2019-06-21 12:00:00 11.9 11 Sur 27 Sudoeste 0 832.7 1.3 78
2019-06-21 11:00:00 12.3 3 Noroeste 12 Norte 0 831.6 0.3 79
2019-06-21 10:00:00 13.3 6 Noroeste 14 Norte 0 831.5 0.9 77
2019-06-21 09:00:00 12.7 7 Noroeste 10 Norte 0 831.4 0.9 81
2019-06-21 08:00:00 11.3 5 Nordeste 12 Nordeste 0 831.3 0.7 77
2019-06-21 07:00:00 10.3 5 Norte 22 Este 0 830.6 -0.4 84
2019-06-21 06:00:00 10.6 6 Este 27 Este 0 830.5 -0.6 81
2019-06-21 05:00:00 8.9 4 Sudeste 12 Este 0 830.6 -0.9 95
2019-06-21 04:00:00 9 5 Sudeste 11 Sur 0 831 -0.5 93
2019-06-21 03:00:00 9.8 4 Sur 22 Sudeste 0 831.1 -1 89
2019-06-21 02:00:00 10.7 11 Sudeste 23 Sudeste 0 831.5 -1.1 86
2019-06-21 01:00:00 9.2 6 Sudeste 11 Sudeste 0 831.5 -0.8 96
2019-06-21 00:00:00 8.4 6 Sudeste 12 Este 0 832.1 1.1 95
2019-06-20 23:00:00 9 5 Sur 28 Noroeste 2 832.6 1.9 94
2019-06-20 22:00:00 10.9 13 Oeste 33 Oeste 1 832.3 1.6 88
2019-06-20 21:00:00 11.9 10 Este 32 Sudeste 2.2 831 0.1 89
2019-06-20 20:00:00 14.2 6 Sur 22 Este 0 830.7 0.3 82
2019-06-20 19:00:00 13.9 14 Sur 32 Sur 0 830.7 -0.1 84
2019-06-20 18:00:00 12.1 12 Sur 52 Sur 8.8 830.9 -0.5 86
2019-06-20 17:00:00 16.1 10 Sudeste 34 Sudeste 0 830.4 -1.4 74
2019-06-20 16:00:00 19.2 4 Sudeste 31 Sudoeste 0 830.8 -1.1 58
2019-06-20 15:00:00 19.2 11 Sudoeste 33 Sudoeste 0 831.4 -0.4 53
2019-06-20 14:00:00 17.8 14 Este 26 Sudeste 0 831.8 0.2 60
2019-06-20 13:00:00 18.2 9 Sur 24 Sudoeste 0 831.9 0.4 52
2019-06-20 12:00:00 16.8 11 Sudoeste 24 Sudoeste 0 831.8 0.3 64
2019-06-20 11:00:00 16 10 Sudoeste 26 Sudoeste 0 831.6 0.6 67
2019-06-20 10:00:00 14.4 6 Norte 12 Norte 0 831.5 0.4 79
2019-06-20 09:00:00 12.5 5 Sur 14 Sur 0 831.5 0.3 81
2019-06-20 08:00:00 10.9 3 Sudeste 7 Sur 0 831 -0.3 93
2019-06-20 07:00:00 9.9 6 Sudeste 11 Sudeste 0 831.1 -0.2 93
2019-06-20 06:00:00 9.8 7 Sudeste 11 Sudeste 0 831.2 -0.1 92
2019-06-20 05:00:00 10.9 7 Este 22 Sudoeste 3.2 831.3 -0.2 91
2019-06-20 04:00:00 11.2 0 Calma 7 Sudeste 0 831.3 -0.4 90
2019-06-20 03:00:00 11.6 2 Sudeste 12 Sudeste 0 831.3 -0.1 83
2019-06-20 02:00:00 11.4 3 Sudeste 12 Nordeste 0 831.5 0.1 81
2019-06-20 01:00:00 12.1 5 Este 9 Sur 0 831.7 0.6 78
2019-06-20 00:00:00 13.2 3 Este 8 Nordeste 0 831.4 0.5 64
2019-06-19 23:00:00 14.2 5 Norte 19 Sur 0 831.4 0.7 62
2019-06-19 22:00:00 15.6 11 Sur 22 Sur 0 831.1 0.6 57
2019-06-19 21:00:00 18.2 13 Sur 24 Sudoeste 0 830.9 0.3 33
2019-06-19 20:00:00 20.4 13 Sudoeste 25 Sudoeste 0 830.7 -0.2 29
2019-06-19 19:00:00 21.3 9 Oeste 23 Sudoeste 0 830.5 -0.5 24
2019-06-19 18:00:00 21.1 9 Sudoeste 24 Sudoeste 0 830.6 -0.5 23
2019-06-19 17:00:00 20.3 7 Sudoeste 29 Sudoeste 0 830.9 -0.4 23
2019-06-19 16:00:00 20.1 11 Sudoeste 26 Sudoeste 0 831 -0.2 26
2019-06-19 15:00:00 20.2 10 Sudoeste 39 Oeste 0 831.1 0 30
2019-06-19 14:00:00 20.5 13 Sudoeste 35 Sudoeste 0 831.3 0.3 31
2019-06-19 13:00:00 20.5 9 Oeste 29 Sudoeste 0 831.2 0.2 26
2019-06-19 12:00:00 20.5 7 Este 31 Sur 0 831.1 0.4 29
2019-06-19 11:00:00 19.9 8 Sur 22 Sur 0 831 0.6 28
2019-06-19 10:00:00 19.1 9 Sur 23 Sur 0 831 0.5 29
2019-06-19 09:00:00 16.5 5 Norte 20 Sur 0 830.7 0.1 44
2019-06-19 08:00:00 11.6 5 Este 9 Sudeste 0 830.4 0 55
2019-06-19 07:00:00 10.7 5 Sudeste 12 Sudoeste 0 830.5 0 58
2019-06-19 06:00:00 10.2 6 Sudeste 12 Sudeste 0 830.6 -0.4 54
2019-06-19 05:00:00 11.7 5 Este 15 Oeste 0 830.4 -1.1 48
2019-06-19 04:00:00 13.5 6 Sur 23 Sudeste 0 830.5 -1.5 40
2019-06-19 03:00:00 13.6 12 Sudeste 17 Sur 0 831 -1 36
2019-06-19 02:00:00 13.7 10 Sur 21 Sudeste 0 831.5 -0.4 33
2019-06-19 01:00:00 12.8 6 Sudeste 18 Sudoeste 0 832 0.4 45
2019-06-19 00:00:00 14.8 10 Sur 26 Sur 0 832 0.5 33
2019-06-18 23:00:00 15.4 14 Sur 30 Sudeste 0 831.9 0.5 41
2019-06-18 22:00:00 15.8 17 Sur 30 Sur 0 831.6 0.2 44
2019-06-18 21:00:00 17.2 17 Sur 30 Sudeste 0 831.5 0.1 45
2019-06-18 20:00:00 19.4 16 Sur 30 Sur 0 831.4 -0.3 42
2019-06-18 19:00:00 20.6 11 Sudoeste 34 Sudoeste 0 831.4 -0.7 41
2019-06-18 18:00:00 21.4 7 Norte 35 Sudeste 0 831.4 -0.9 42
2019-06-18 17:00:00 21.5 9 Oeste 33 Sudoeste 0 831.7 -0.7 38
2019-06-18 16:00:00 22 13 Sudoeste 31 Sudoeste 0 832.1 -0.6 38
2019-06-18 15:00:00 21.8 8 Sudoeste 28 Sudoeste 0 832.3 -0.6 41
2019-06-18 14:00:00 21.5 10 Sudoeste 27 Sudoeste 0 832.4 -0.4 37
2019-06-18 13:00:00 21.2 8 Noroeste 26 Sur 0 832.7 0 39
2019-06-18 12:00:00 19.7 7 Noroeste 24 Sur 0 832.9 0.1 38
2019-06-18 11:00:00 18.7 8 Noroeste 17 Norte 0 832.8 0.1 50
2019-06-18 10:00:00 18.4 5 Norte 14 Nordeste 0 832.7 0.2 49
2019-06-18 09:00:00 15.9 3 Noroeste 11 Nordeste 0 832.8 0 64
2019-06-18 08:00:00 12.7 2 Sur 9 Sudeste 0 832.7 -0.2 70
2019-06-18 07:00:00 11.1 4 Este 10 Sudeste 0 832.5 -0.7 75
2019-06-18 06:00:00 10.3 7 Sudeste 10 Sudeste 0 832.8 -0.7 77
2019-06-18 05:00:00 10.1 4 Sudeste 10 Sudeste 0 832.9 -0.7 81
2019-06-18 04:00:00 9.8 5 Sudeste 10 Sudeste 0 833.2 -0.6 81
2019-06-18 03:00:00 11.1 3 Sudeste 15 Sur 0 833.5 -0.3 73
2019-06-18 02:00:00 13.6 9 Sur 19 Sudeste 0 833.6 -0.2 63
2019-06-18 01:00:00 13.3 10 Sur 17 Sur 0 833.8 0.4 69
2019-06-18 00:00:00 13.7 4 Sur 15 Sur 0 833.8 0.6 67
2019-06-17 23:00:00 14 9 Sur 25 Sur 0 833.8 0.8 67
2019-06-17 22:00:00 14.5 14 Sur 27 Sur 0 833.4 0.6 67
2019-06-17 21:00:00 15.7 12 Sudoeste 31 Sudeste 0 833.2 0.2 63
2019-06-17 20:00:00 17.7 15 Sudeste 29 Sudeste 0 833 -0.2 56
2019-06-17 19:00:00 18.3 9 Sudeste 26 Sur 0 832.8 -0.6 49
2019-06-17 18:00:00 20.5 11 Sudeste 28 Sudeste 0 833 -0.6 38
2019-06-17 17:00:00 19.9 15 Sudeste 36 Este 0 833.2 -0.5 43
2019-06-17 16:00:00 20.5 9 Sudeste 27 Sudeste 0 833.4 -0.5 42
2019-06-17 15:00:00 20.1 11 Sudeste 28 Sudoeste 0 833.6 -0.3 43
2019-06-17 14:00:00 20.1 8 Sudoeste 31 Este 0 833.7 -0.2 43
2019-06-17 13:00:00 18.4 8 Este 24 Noroeste 0 833.9 -0.1 47
2019-06-17 12:00:00 18.3 9 Noroeste 17 Noroeste 0 833.9 -0.2 48
2019-06-17 11:00:00 16.7 9 Noroeste 15 Norte 0 833.9 -0.2 58
2019-06-17 10:00:00 16.8 3 Noroeste 9 Norte 0 834 0.2 54
2019-06-17 09:00:00 14.5 0 Calma 4 Sudeste 0 834.1 0.2 66
2019-06-17 08:00:00 11.6 2 Este 7 Sudeste 0 834.1 0.5 74
2019-06-17 07:00:00 8.6 4 Este 10 Sudeste 0 833.8 -0.1 84
2019-06-17 06:00:00 8.1 7 Sudeste 11 Sudeste 0 833.9 -0.2 85
2019-06-17 05:00:00 8.7 8 Sudeste 10 Este 0 833.6 -0.7 86
2019-06-17 04:00:00 8.7 5 Sudeste 8 Sudeste 0 833.9 -0.6 84
2019-06-17 03:00:00 9.1 6 Sudeste 10 Sudeste 0 834.1 -0.5 84
2019-06-17 02:00:00 9.7 5 Sudeste 9 Sudeste 0 834.3 -0.2 78
2019-06-17 01:00:00 10.3 5 Sudeste 9 Sudeste 0 834.5 0.3 79
2019-06-17 00:00:00 11 5 Sudeste 8 Sudeste 0 834.6 0.7 76
2019-06-16 23:00:00 11.9 4 Sudeste 19 Sudeste 0 834.5 0.4 72
2019-06-16 22:00:00 13 3 Sur 28 Sudeste 0 834.2 0.3 67
2019-06-16 21:00:00 15.4 14 Sur 29 Sur 0 833.9 0 60
2019-06-16 20:00:00 17.6 8 Sur 26 Sudeste 0 834.1 -0.1 49
2019-06-16 19:00:00 18.4 7 Sudeste 24 Sudeste 0 833.9 -0.6 49
2019-06-16 18:00:00 18.9 12 Sudoeste 28 Sudoeste 0 833.9 -0.8 46
2019-06-16 17:00:00 19.7 11 Sudoeste 28 Sudoeste 0 834.2 -0.5 43
2019-06-16 16:00:00 19.3 10 Sur 27 Sudoeste 0 834.5 -0.4 49
2019-06-16 15:00:00 17.9 13 Sudoeste 27 Sudeste 0 834.7 -0.4 59
2019-06-16 14:00:00 18 6 Norte 16 Norte 0 834.7 -0.4 61
2019-06-16 13:00:00 16.5 9 Noroeste 16 Noroeste 0 834.9 0 49
2019-06-16 12:00:00 15 5 Norte 14 Noroeste 0 835.1 0.5 56
2019-06-16 11:00:00 13.2 7 Noroeste 11 Norte 0 835.1 0.8 62
2019-06-16 10:00:00 11.6 6 Noroeste 9 Noroeste 0 834.9 0.7 69
2019-06-16 09:00:00 10.2 5 Noroeste 8 Noroeste 0 834.6 0.5 73
2019-06-16 08:00:00 8.4 0 Calma 8 Sudeste 0 834.3 0.2 80
2019-06-16 07:00:00 5.3 4 Este 10 Sudeste 0 834.2 -0.2 91
2019-06-16 06:00:00 5.2 4 Este 8 Este 0 834.1 -0.5 91
2019-06-16 05:00:00 4.9 5 Sudeste 9 Sur 0 834.1 -0.8 90
2019-06-16 04:00:00 5.2 3 Sudeste 9 Sudeste 0 834.4 -0.7 90
2019-06-16 03:00:00 5.6 3 Este 8 Sudeste 0 834.6 -0.3 88
2019-06-16 02:00:00 5.7 4 Sudeste 8 Sudeste 0 834.9 0.4 90
2019-06-16 01:00:00 6.6 2 Sudeste 6 Nordeste 0 835.1 1.4 88
2019-06-16 00:00:00 7.8 3 Este 9 Nordeste 0 834.9 1.8 83
2019-06-15 23:00:00 8.3 2 Sudeste 10 Nordeste 0 834.5 1.8 81
2019-06-15 22:00:00 11.4 6 Sur 24 Sudeste 0 833.7 1.2 66
2019-06-15 21:00:00 13.6 15 Sur 28 Sudoeste 0 833.1 1 57
2019-06-15 20:00:00 15.5 13 Sudoeste 28 Sudoeste 0 832.7 0.6 47
2019-06-15 19:00:00 16.1 11 Sudoeste 28 Sudoeste 0 832.5 0.5 43
2019-06-15 18:00:00 16.6 8 Sudeste 33 Sudoeste 0 832.1 0.2 45
2019-06-15 17:00:00 17.1 10 Sudoeste 26 Sudoeste 0 832.1 0.2 34
2019-06-15 16:00:00 17.3 10 Sudoeste 29 Sudoeste 0 832 0.1 33
2019-06-15 15:00:00 16.5 14 Sudoeste 36 Sudoeste 0 831.9 0.2 37
2019-06-15 14:00:00 16.2 10 Oeste 32 Sudoeste 0 831.9 0.2 45
2019-06-15 13:00:00 15.7 9 Noroeste 31 Sudoeste 0 831.9 0.4 51
2019-06-15 12:00:00 15.1 11 Oeste 29 Sudoeste 0 831.7 0.9 55
2019-06-15 11:00:00 14.5 10 Oeste 21 Norte 0 831.7 1 58
2019-06-15 10:00:00 13.7 9 Norte 19 Norte 0 831.5 1.1 69
2019-06-15 09:00:00 12.6 5 Norte 9 Norte 0 830.8 0.6 75
2019-06-15 08:00:00 11.5 4 Noroeste 21 Sudeste 0 830.7 0.4 74
2019-06-15 07:00:00 11.1 15 Sudeste 23 Sudeste 0 830.4 0 71
2019-06-15 06:00:00 10.8 14 Sudeste 23 Sudeste 0 830.2 -0.4 70
2019-06-15 05:00:00 10 3 Nordeste 15 Sudeste 0 830.3 -0.4 76
2019-06-15 04:00:00 11.2 8 Este 28 Sudeste 0 830.4 -0.4 75
2019-06-15 03:00:00 11.4 10 Este 23 Sudeste 0 830.6 0 78
2019-06-15 02:00:00 11.4 10 Sudeste 20 Sudeste 0 830.7 0.4 79
2019-06-15 01:00:00 12.4 12 Sur 19 Sur 0 830.8 1.1 69
2019-06-15 00:00:00 12.3 9 Sur 19 Sudeste 0 830.6 1.6 57
2019-06-14 23:00:00 11 3 Sur 13 Sudeste 0 830.3 2 65
2019-06-14 22:00:00 11.5 5 Sudeste 13 Sur 0 829.7 1.9 70
2019-06-14 21:00:00 15.4 5 Sudoeste 16 Oeste 0 829 1.8 56
2019-06-14 20:00:00 16.8 6 Sudoeste 18 Sudoeste 0 828.3 1.2 52
2019-06-14 19:00:00 15.3 7 Norte 26 Norte 0 827.8 1.4 72
2019-06-14 18:00:00 17.2 9 Noroeste 23 Sur 0 827.2 0.9 67
2019-06-14 17:00:00 16.4 12 Sur 28 Sur 0 827.1 0 67
2019-06-14 16:00:00 18.1 8 Sudoeste 29 Sudoeste 0 826.4 -0.9 62
2019-06-14 15:00:00 15.6 9 Este 28 Sudeste 0 826.3 -0.2 78
2019-06-14 14:00:00 16.1 8 Oeste 25 Noroeste 0 827.1 -0.3 62
2019-06-14 13:00:00 16.3 13 Oeste 29 Noroeste 0 827.3 -0.3 65
2019-06-14 12:00:00 14.2 5 Norte 21 Noroeste 0 826.5 -0.8 75
2019-06-14 11:00:00 13.1 7 Nordeste 14 Nordeste 0 827.4 0.5 81
2019-06-14 10:00:00 12.7 6 Sudeste 11 Norte 0.2 827.6 0.7 77
2019-06-14 09:00:00 12.3 6 Norte 29 Sudeste 0 827.3 0 80
2019-06-14 08:00:00 12.9 9 Sudeste 16 Sudeste 0.4 826.9 -0.9 69
2019-06-14 07:00:00 12.6 5 Este 14 Sudeste 0 826.9 -1.5 73
2019-06-14 06:00:00 14.5 13 Sudeste 23 Sudeste 0 827.3 -1.8 55
2019-06-14 05:00:00 14.6 6 Sudeste 21 Sudoeste 0 827.8 -1.7 61
2019-06-14 04:00:00 15.1 6 Nordeste 26 Sudeste 0 828.4 -1.6 50
2019-06-14 03:00:00 13.3 16 Este 34 Sudeste 0 829.1 -0.8 60
2019-06-14 02:00:00 11.5 12 Sudeste 27 Sudeste 0 829.5 -0.2 62
2019-06-14 01:00:00 10.6 9 Sudeste 26 Sudeste 0 830 0.5 46
2019-06-14 00:00:00 10.5 5 Sudeste 26 Este 0 829.9 1 55
2019-06-13 23:00:00 10.7 6 Sudeste 18 Este 0 829.7 0.5 68
2019-06-13 22:00:00 10.4 5 Sudeste 13 Nordeste 0 829.5 0.9 75
2019-06-13 21:00:00 11.9 5 Norte 26 Sur 0 828.9 -0.3 70
2019-06-13 20:00:00 13.5 12 Este 36 Este 0 829.2 -0.2 62
2019-06-13 19:00:00 14.7 11 Este 27 Sudeste 0 828.6 -1 53
2019-06-13 18:00:00 15.8 6 Este 31 Este 0 829.2 -0.4 46
2019-06-13 17:00:00 16.1 9 Este 30 Sudeste 0 829.4 -0.4 47
2019-06-13 16:00:00 16.4 9 Sudoeste 27 Sudoeste 0 829.6 -0.4 43
2019-06-13 15:00:00 15.5 7 Sudeste 36 Sudeste 0 829.6 -0.4 44
2019-06-13 14:00:00 15 8 Sudeste 37 Este 0 829.8 -0.1 51
2019-06-13 13:00:00 14.2 15 Sudeste 32 Este 0 830 0.5 42
2019-06-13 12:00:00 13.6 7 Sudeste 31 Sudoeste 0 830 0.6 46
2019-06-13 11:00:00 12.5 8 Sudeste 32 Sudoeste 0 829.9 0.8 42
2019-06-13 10:00:00 11.4 9 Sudoeste 22 Sudoeste 0 829.5 0.6 40
2019-06-13 09:00:00 9.5 6 Noroeste 16 Norte 0 829.4 0.7 49
2019-06-13 08:00:00 7.4 3 Norte 17 Nordeste 0 829.1 0.4 58
2019-06-13 07:00:00 3.8 5 Norte 11 Norte 0 828.9 0.2 70
2019-06-13 06:00:00 2.9 5 Este 10 Sudeste 0 828.7 -0.1 77
2019-06-13 05:00:00 3 5 Sudeste 10 Sudeste 0 828.7 -0.3 78
2019-06-13 04:00:00 3.1 5 Sudeste 10 Sudeste 0 828.7 -0.5 76
2019-06-13 03:00:00 3.2 7 Sudeste 11 Sudeste 0 828.8 -0.6 76
2019-06-13 02:00:00 3.4 6 Este 9 Sudeste 0 829 -0.4 74
2019-06-13 01:00:00 4.3 2 Sur 17 Sur 0 829.2 0.4 72
2019-06-13 00:00:00 5.7 8 Sur 19 Sudeste 0 829.4 1 68
2019-06-12 23:00:00 6.4 12 Sur 22 Sudeste 0 829.4 1.1 65
2019-06-12 22:00:00 7 14 Sudeste 19 Sur 0 828.8 1 63
2019-06-12 21:00:00 9.1 9 Sur 19 Sur 0 828.4 0.5 50
2019-06-12 20:00:00 10.5 7 Sudoeste 23 Sudoeste 0 828.3 0.4 52
2019-06-12 19:00:00 10.7 5 Sudoeste 22 Sudoeste 0 827.8 0 54
2019-06-12 18:00:00 11.9 7 Sur 33 Oeste 0 827.9 0.1 48
2019-06-12 17:00:00 12.3 9 Sudoeste 25 Sur 0 827.9 0.1 47
2019-06-12 16:00:00 11.4 12 Sur 30 Sudoeste 0 827.8 0.2 49
2019-06-12 15:00:00 11.1 7 Sudoeste 24 Noroeste 0 827.8 0.3 53
2019-06-12 14:00:00 10.9 6 Sur 27 Sudoeste 0 827.8 0.6 60
2019-06-12 13:00:00 9 12 Noroeste 22 Norte 0 827.6 0.5 66
2019-06-12 12:00:00 8.3 13 Norte 23 Norte 0 827.5 0.8 65
2019-06-12 11:00:00 7.2 5 Noroeste 10 Noroeste 0 827.2 0.9 78
2019-06-12 10:00:00 5.8 4 Noroeste 11 Norte 0 827.1 0.9 72
2019-06-12 09:00:00 5.4 5 Norte 12 Nordeste 0 826.7 0.8 74
2019-06-12 08:00:00 2 3 Sudeste 6 Sudeste 0 826.3 0.5 83
2019-06-12 07:00:00 -0.4 4 Nordeste 10 Sudeste 0 826.2 0.2 91
2019-06-12 06:00:00 -0.7 5 Sudeste 10 Sudeste 0 825.9 -0.3 93
2019-06-12 05:00:00 -0.8 6 Sudeste 9 Sudeste 0 825.8 -0.7 91
2019-06-12 04:00:00 -0.7 5 Sudeste 10 Sudeste 0 826 -0.8 94
2019-06-12 03:00:00 -0.7 6 Sudeste 9 Sudeste 0 826.2 -0.4 95
2019-06-12 02:00:00 -0.5 5 Sudeste 9 Sur 0 826.5 -0.4 95
2019-06-12 01:00:00 -0.3 5 Sudeste 9 Sur 0 826.8 0.4 95
2019-06-12 00:00:00 0.4 6 Sur 13 Sur 0 826.6 0.2 90
2019-06-11 23:00:00 1.2 7 Sur 15 Sur 0 826.9 0.6 89
2019-06-11 22:00:00 1.8 6 Sur 14 Sur 0 826.4 1 92
2019-06-11 21:00:00 2.1 5 Sudoeste 10 Sudoeste 0.8 826.4 1.1 93
2019-06-11 20:00:00 2.6 4 Noroeste 13 Sudoeste 1.6 826.3 1 94
2019-06-11 19:00:00 3.6 5 Oeste 10 Norte 0.2 825.4 0 92
2019-06-11 18:00:00 3.9 8 Noroeste 12 Noroeste 0.2 825.3 0.2 96
2019-06-11 17:00:00 4.1 4 Norte 7 Norte 0 825.3 0.1 94
2019-06-11 16:00:00 3.7 0 Calma 11 Noroeste 1.2 825.4 0.2 93
2019-06-11 15:00:00 3.6 6 Noroeste 11 Norte 1.6 825.1 0.1 97
2019-06-11 14:00:00 3.5 4 Norte 14 Norte 2 825.2 0.3 99
2019-06-11 13:00:00 3.4 6 Norte 11 Norte 1.8 825.2 0.3 98
2019-06-11 12:00:00 3.6 5 Norte 9 Norte 1.8 825 0 98
2019-06-11 11:00:00 3.6 4 Nordeste 12 Nordeste 2.2 824.9 -0.1 97
2019-06-11 10:00:00 3.8 2 Noroeste 21 Noroeste 3.4 824.9 -0.3 94
2019-06-11 09:00:00 3.4 2 Nordeste 27 Oeste 3 825 -0.4 95
2019-06-11 08:00:00 3.2 5 Noroeste 16 Noroeste 6.2 825 -1 95
2019-06-11 07:00:00 2.9 4 Noroeste 10 Noroeste 3.2 825.2 -1.3 97
2019-06-11 06:00:00 2.8 3 Norte 16 Sudoeste 2 825.4 -1.1 96
2019-06-11 05:00:00 4.1 7 Sudoeste 38 Noroeste 2.6 826 -1.1 84
2019-06-11 04:00:00 7 17 Oeste 34 Noroeste 0 826.5 -0.9 62
2019-06-11 03:00:00 7.2 10 Sur 26 Sur 0 826.5 -1.2 64
2019-06-11 02:00:00 7.8 11 Sur 31 Sur 0 827.1 -0.6 66
2019-06-11 01:00:00 7.9 15 Sur 30 Sudeste 0 827.4 0 64
2019-06-11 00:00:00 8.3 7 Sudeste 25 Sudeste 0 827.7 0.4 65
2019-06-10 23:00:00 9.2 15 Sudeste 24 Sudeste 0 827.7 0.6 74
2019-06-10 22:00:00 10.4 7 Sudeste 25 Sur 0 827.4 0.5 64
2019-06-10 21:00:00 11.3 13 Sur 30 Sur 0 827.3 0 63
2019-06-10 20:00:00 12 14 Sur 31 Sudoeste 0 827.1 -0.2 66
2019-06-10 19:00:00 12.5 13 Sur 29 Sudoeste 0 826.9 -0.9 62
2019-06-10 18:00:00 13.3 11 Sudoeste 27 Sudoeste 0 827.3 -0.8 65
2019-06-10 17:00:00 14.7 9 Sudoeste 34 Sudoeste 0 827.3 -1.4 59
2019-06-10 16:00:00 15.1 9 Oeste 30 Sudoeste 0 827.8 -1 55
2019-06-10 15:00:00 15.5 10 Sudoeste 32 Sudoeste 0 828.1 -0.9 52
2019-06-10 14:00:00 13.7 14 Sudoeste 31 Sudoeste 0 828.7 -0.5 62
2019-06-10 13:00:00 12.3 9 Norte 17 Noroeste 0 828.8 -0.5 72
2019-06-10 12:00:00 13.4 10 Noroeste 15 Noroeste 0 829 -0.4 70
2019-06-10 11:00:00 10.4 6 Este 32 Noroeste 0 829.2 0 82
2019-06-10 10:00:00 10.4 4 Sudeste 10 Noroeste 0 829.3 0.2 85
2019-06-10 09:00:00 9.8 3 Este 22 Sudeste 0.2 829.4 0.3 84
2019-06-10 08:00:00 9.2 7 Este 24 Sudeste 0.2 829.2 -0.1 87
2019-06-10 07:00:00 8.4 2 Sudeste 6 Sudeste 0 829.1 -0.9 91
2019-06-10 06:00:00 7.8 3 Sudoeste 6 Sudoeste 0 829.1 -1.6 92
2019-06-10 05:00:00 7.5 4 Sudeste 9 Sur 0 829.3 -1.8 92
2019-06-10 04:00:00 7.7 4 Sur 9 Sudoeste 0 830 -1.3 90
2019-06-10 03:00:00 7.9 5 Sudoeste 9 Oeste 0 830.7 -0.7 89
2019-06-10 02:00:00 9.4 3 Sudeste 6 Sudoeste 0 831.1 -0.2 82
2019-06-10 01:00:00 9.5 4 Sur 9 Este 0 831.3 0.8 81
2019-06-10 00:00:00 10.7 3 Sudeste 11 Sudeste 0 831.4 1.3 79
2019-06-09 23:00:00 11.2 4 Sudeste 10 Sudeste 0 831.3 1.3 74
2019-06-09 22:00:00 12.3 3 Sudeste 7 Sur 0 830.5 0.4 70
2019-06-09 21:00:00 15.7 4 Sudoeste 18 Sur 0 830.1 0.1 58
2019-06-09 20:00:00 16.7 13 Sur 26 Sudoeste 0 830 -0.1 51
2019-06-09 19:00:00 18.1 8 Sudoeste 19 Sudoeste 0 830.1 -1 44
2019-06-09 18:00:00 18.7 7 Noroeste 17 Noroeste 0 830 -1.3 46
2019-06-09 17:00:00 18.9 3 Noroeste 29 Sudoeste 0 830.1 -1.7 43
2019-06-09 16:00:00 18.5 17 Sudoeste 30 Sudoeste 0 831.1 -0.7 42
2019-06-09 15:00:00 17.3 9 Sur 30 Sudoeste 0 831.3 -1 45
2019-06-09 14:00:00 16.7 15 Sudoeste 28 Sudoeste 0 831.8 -0.3 43
2019-06-09 13:00:00 15.9 6 Nordeste 23 Este 0 831.8 -0.9 46
2019-06-09 12:00:00 15.5 17 Sudoeste 35 Sudoeste 0 832.3 -0.3 44
2019-06-09 11:00:00 15.4 7 Oeste 25 Sudeste 0 832.1 -0.4 45
2019-06-09 10:00:00 14.5 10 Este 31 Sudeste 0 832.7 -0.2 49
2019-06-09 09:00:00 15.3 13 Oeste 37 Sudeste 0 832.6 -0.9 47
2019-06-09 08:00:00 15.2 2 Norte 20 Sudeste 0 832.5 -1.4 48
2019-06-09 07:00:00 14 8 Sudeste 15 Sudeste 0 832.9 -1.4 50
2019-06-09 06:00:00 14 5 Este 24 Este 0 833.5 -1.4 48
2019-06-09 05:00:00 13.5 8 Este 22 Este 0 833.9 -1.6 48
2019-06-09 04:00:00 13.1 4 Este 37 Este 0 834.3 -1.5 47
2019-06-09 03:00:00 12.9 14 Este 31 Este 0 834.9 -1 36
2019-06-09 02:00:00 12.7 11 Sudeste 32 Sudeste 0 835.5 -0.8 34
2019-06-09 01:00:00 12.2 6 Sudeste 30 Este 0 835.8 0.1 47
2019-06-09 00:00:00 12.3 11 Este 26 Sudeste 0 835.9 0.4 42
2019-06-08 23:00:00 9.3 4 Sudeste 24 Este 0 836.3 0.8 73
2019-06-08 22:00:00 10.4 4 Sudeste 33 Sur 0 835.7 0.3 67
2019-06-08 21:00:00 11.6 22 Sur 39 Sur 0 835.5 -0.2 65
2019-06-08 20:00:00 12.9 19 Sudeste 33 Sudeste 0 835.5 -0.3 60
2019-06-08 19:00:00 14.8 14 Sudeste 34 Sudeste 0 835.4 -0.7 56
2019-06-08 18:00:00 16.9 13 Sudoeste 34 Sudoeste 0 835.7 -0.6 44
2019-06-08 17:00:00 17.2 13 Sudoeste 33 Sudoeste 0 835.8 -0.7 42
2019-06-08 16:00:00 18.1 8 Sur 35 Sudoeste 0 836.1 -0.7 41
2019-06-08 15:00:00 17.5 9 Oeste 35 Sudoeste 0 836.3 -0.7 38
2019-06-08 14:00:00 16.7 9 Sur 32 Sudoeste 0 836.5 -0.3 40
2019-06-08 13:00:00 15.3 7 Sudoeste 33 Sudoeste 0 836.8 0.1 35
2019-06-08 12:00:00 13.4 10 Oeste 27 Sur 0 837 0.5 44
2019-06-08 11:00:00 11.4 7 Noroeste 15 Norte 0 836.8 0.7 47
2019-06-08 10:00:00 10.6 5 Norte 12 Norte 0 836.7 1.2 45
2019-06-08 09:00:00 8.9 6 Noroeste 10 Noroeste 0 836.5 1.4 49
2019-06-08 08:00:00 7.2 2 Nordeste 6 Este 0 836.1 1 56
2019-06-08 07:00:00 4.3 3 Sudeste 11 Sudeste 0 835.5 0.7 62
2019-06-08 06:00:00 3.7 7 Sudeste 10 Sudeste 0 835.1 0.4 69
2019-06-08 05:00:00 4.4 7 Sudeste 13 Sudoeste 0 835.1 0.4 66
2019-06-08 04:00:00 4.1 8 Sur 15 Sudoeste 0 834.8 0.2 64
2019-06-08 03:00:00 4 4 Este 12 Sudoeste 0 834.7 0.5 65
2019-06-08 02:00:00 4.6 4 Este 11 Sur 0 834.7 0.9 61
2019-06-08 01:00:00 4.9 4 Este 10 Sudeste 0 834.6 1.6 62
2019-06-08 00:00:00 5.5 3 Sudeste 22 Sur 0 834.2 2 58
2019-06-07 23:00:00 8.8 12 Sur 23 Sur 0 833.8 2.1 33
2019-06-07 22:00:00 9.2 12 Sudeste 23 Sudeste 0 833 2.1 35
2019-06-07 21:00:00 11.3 9 Sudoeste 25 Sudoeste 0 832.2 2 35
2019-06-07 20:00:00 13.8 15 Sudoeste 33 Sudoeste 0 831.7 1.9 28
2019-06-07 19:00:00 14.9 11 Sudoeste 37 Sur 0 830.9 1.5 33
2019-06-07 18:00:00 15.5 5 Sur 22 Noroeste 0 830.2 1.3 43
2019-06-07 17:00:00 14.1 6 Oeste 22 Noroeste 0 829.8 1.4 44
2019-06-07 16:00:00 13.4 13 Noroeste 27 Noroeste 0 829.4 1.6 53
2019-06-07 15:00:00 12.3 12 Oeste 28 Oeste 0 828.9 1.6 60
2019-06-07 14:00:00 12.3 15 Noroeste 33 Noroeste 0 828.4 1.8 68
2019-06-07 13:00:00 14.8 7 Sur 33 Oeste 0 827.8 1.6 49
2019-06-07 12:00:00 13.7 9 Sur 30 Sur 0 827.3 1.3 56
2019-06-07 11:00:00 12.2 11 Sudoeste 28 Sur 0 826.6 0.9 60
2019-06-07 10:00:00 10.6 10 Nordeste 20 Norte 0 826.2 0.5 71
2019-06-07 09:00:00 9 9 Norte 23 Norte 0 826 0.3 69
2019-06-07 08:00:00 8.2 5 Norte 40 Sudoeste 0 825.7 -0.3 69
2019-06-07 07:00:00 5.9 9 Sudeste 32 Este 0 825.7 -0.4 79
2019-06-07 06:00:00 5.5 9 Este 27 Noroeste 0 825.7 -0.7 82
2019-06-07 05:00:00 5.9 5 Oeste 34 Este 0 826 -0.8 76
2019-06-07 04:00:00 6.3 6 Este 38 Sudeste 0 826.1 -1 79
2019-06-07 03:00:00 6.7 11 Este 42 Sudeste 0 826.4 -0.4 78
2019-06-07 02:00:00 6.8 10 Sudeste 33 Sudoeste 0 826.8 -0.4 61
2019-06-07 01:00:00 6.9 12 Sur 56 Sudoeste 0 827.1 0 64
2019-06-07 00:00:00 6.7 10 Sudoeste 49 Sudoeste 0 826.8 -0.8 68
2019-06-06 23:00:00 7.1 12 Sudoeste 39 Sudoeste 0 827.2 -0.1 68
2019-06-06 22:00:00 7.4 8 Sudoeste 43 Sudoeste 0 827.1 0 70
2019-06-06 21:00:00 8.1 19 Sur 54 Sudoeste 0 827.6 -0.1 68
2019-06-06 20:00:00 9.4 10 Sudoeste 41 Sudoeste 0 827.3 -0.6 70
2019-06-06 19:00:00 10.2 8 Sur 40 Sudoeste 0 827.1 -1.1 69
2019-06-06 18:00:00 9 11 Sudeste 36 Sudeste 0 827.7 -0.7 76
2019-06-06 17:00:00 9.7 10 Este 35 Sudoeste 0 827.9 -0.8 73
2019-06-06 16:00:00 12.1 12 Sudoeste 43 Sudoeste 0 828.2 -0.7 53
2019-06-06 15:00:00 11.9 13 Sur 32 Sudoeste 0 828.4 -0.5 52
2019-06-06 14:00:00 10.8 9 Sudoeste 27 Sudoeste 0 828.7 0.2 55
2019-06-06 13:00:00 10.1 8 Sudoeste 27 Oeste 0 828.9 0.6 55
2019-06-06 12:00:00 10.8 7 Sudoeste 23 Sudoeste 0 828.9 0.8 55
2019-06-06 11:00:00 10.4 9 Noroeste 16 Norte 0 828.5 0.7 56
2019-06-06 10:00:00 8.9 6 Norte 14 Norte 0 828.3 0.7 61
2019-06-06 09:00:00 7.5 6 Norte 12 Norte 0 828.1 0.7 67
2019-06-06 08:00:00 5.9 5 Nordeste 9 Norte 0 827.8 0.8 75
2019-06-06 07:00:00 2.7 4 Este 9 Sudeste 0 827.6 0.7 90
2019-06-06 06:00:00 2.6 4 Sudeste 7 Este 0 827.4 0.4 88
2019-06-06 05:00:00 2.4 3 Sudeste 10 Sudeste 0 827 -0.1 88
2019-06-06 04:00:00 2.3 5 Sudeste 9 Sudeste 0 826.9 -0.1 88
2019-06-06 03:00:00 2.3 4 Sudeste 9 Sudeste 0 827 0 85
2019-06-06 02:00:00 2.8 6 Sudeste 9 Sudeste 0 827.1 0.6 86
2019-06-06 01:00:00 2.7 5 Sudeste 8 Sudeste 0 827 1.2 87
2019-06-06 00:00:00 3.4 6 Sur 9 Sudoeste 0 827 2 86
2019-06-05 23:00:00 4 3 Sudeste 9 Sudoeste 0 826.5 2.1 83
2019-06-05 22:00:00 6 4 Sudoeste 11 Norte 0 825.8 2 80
2019-06-05 21:00:00 7.9 7 Norte 16 Noroeste 0 825 1.4 75
2019-06-05 20:00:00 9.9 10 Noroeste 22 Noroeste 0 824.4 0.9 68
2019-06-05 19:00:00 11.7 11 Oeste 29 Noroeste 0 823.8 0.9 61
2019-06-05 18:00:00 10.8 11 Noroeste 24 Oeste 0 823.6 0.9 59
2019-06-05 17:00:00 9.3 7 Oeste 33 Oeste 0 823.5 0.8 71
2019-06-05 16:00:00 9.5 12 Noroeste 29 Este 0 822.9 -0.2 83
2019-06-05 15:00:00 10.8 6 Este 29 Este 0 822.7 -0.2 74
2019-06-05 14:00:00 12.1 11 Este 35 Sudeste 0 822.7 -0.2 57
2019-06-05 13:00:00 12.1 13 Sudeste 41 Este 0 823.1 -0.4 48
2019-06-05 12:00:00 14.6 8 Este 41 Nordeste 0 822.9 -0.7 41
2019-06-05 11:00:00 13.8 12 Este 32 Nordeste 0 822.9 -0.9 41
2019-06-05 10:00:00 13.3 8 Este 29 Este 0 823.5 -0.7 40
2019-06-05 09:00:00 12.9 8 Este 31 Sudeste 0 823.6 -1.1 33
2019-06-05 08:00:00 12.4 8 Este 37 Sudeste 0 823.8 -1.3 30
2019-06-05 07:00:00 11.6 17 Sudeste 35 Sudeste 0 824.2 -1.6 26
2019-06-05 06:00:00 11.6 18 Sudeste 37 Sudeste 0 824.7 -1.8 24
2019-06-05 05:00:00 12.6 9 Este 31 Este 0 825.1 -1.9 19
2019-06-05 04:00:00 12.7 4 Este 23 Oeste 0 825.8 -1.7 21
2019-06-05 03:00:00 13.2 5 Norte 27 Sur 0 826.5 -1.1 27
2019-06-05 02:00:00 13.6 10 Sudoeste 28 Sudoeste 0 827 -0.9 25
2019-06-05 01:00:00 13.6 9 Sudoeste 27 Sudoeste 0 827.5 0.1 32
2019-06-05 00:00:00 13.8 5 Noroeste 22 Sudeste 0 827.6 -0.2 35
2019-06-04 23:00:00 14.3 4 Sudeste 20 Este 0 827.9 -0.1 36
2019-06-04 22:00:00 14.2 6 Sudeste 30 Este 0 827.4 -0.6 39
2019-06-04 21:00:00 14.4 13 Sudeste 34 Este 0 827.8 -0.6 45
2019-06-04 20:00:00 17 14 Este 33 Este 0 828 -0.8 45
2019-06-04 19:00:00 18.5 11 Este 38 Este 0 828 -1 45
2019-06-04 18:00:00 20.5 9 Sur 26 Sudeste 0 828.4 -0.9 42
2019-06-04 17:00:00 20.3 9 Sur 27 Sudeste 0 828.8 -0.8 47
2019-06-04 16:00:00 20.9 9 Sur 38 Sudoeste 0 829 -0.9 41
2019-06-04 15:00:00 20.2 10 Este 28 Este 0 829.3 -0.8 43
2019-06-04 14:00:00 20.2 9 Este 28 Sudeste 0 829.6 -0.4 41
2019-06-04 13:00:00 19.5 9 Sudeste 28 Sudeste 0 829.9 0 39
2019-06-04 12:00:00 19.1 13 Este 27 Nordeste 0 830.1 0.1 41
2019-06-04 11:00:00 19.7 9 Sur 27 Sudoeste 0 830 0 37
2019-06-04 10:00:00 19.2 8 Sur 22 Sudeste 0 829.9 -0.1 38
2019-06-04 09:00:00 17.2 3 Norte 8 Nordeste 0 830 0.1 47
2019-06-04 08:00:00 14.1 3 Este 9 Sudeste 0 830 -0.3 53
2019-06-04 07:00:00 12.7 4 Noroeste 24 Sudoeste 0 830 -0.9 54
2019-06-04 06:00:00 14.7 6 Sur 23 Sudeste 0 829.9 -1.6 47
2019-06-04 05:00:00 15.1 11 Sur 21 Sudeste 0 830.3 -1.9 43
2019-06-04 04:00:00 14.7 10 Sur 21 Sur 0 830.9 -1.8 46
2019-06-04 03:00:00 12.1 6 Sudeste 12 Sudeste 0 831.5 -1.4 61
2019-06-04 02:00:00 12.7 7 Sudeste 12 Sudeste 0 832.2 -0.9 60
2019-06-04 01:00:00 12.7 5 Sudeste 11 Sudeste 0 832.7 -0.2 64
2019-06-04 00:00:00 12.8 5 Sudeste 12 Sudoeste 0 832.9 0 60
2019-06-03 23:00:00 13.6 3 Sur 11 Sudeste 0 833.1 0.1 57
2019-06-03 22:00:00 13.9 5 Sudeste 16 Sur 0 832.9 -0.1 60
2019-06-03 21:00:00 16.5 9 Sur 27 Sudeste 0 832.9 -0.4 49
2019-06-03 20:00:00 18.6 14 Sur 25 Sur 0 833 -0.6 44
2019-06-03 19:00:00 19.3 12 Sur 29 Sudoeste 0 833 -0.7 46
2019-06-03 18:00:00 19.4 16 Sur 32 Sudoeste 0 833.3 -0.7 46
2019-06-03 17:00:00 19.1 16 Sudoeste 27 Sudoeste 0 833.6 -0.8 44
2019-06-03 16:00:00 19.6 14 Sudoeste 29 Sudoeste 0 833.7 -0.7 43
2019-06-03 15:00:00 20.6 12 Sudoeste 28 Sudoeste 0 834 -0.5 36
2019-06-03 14:00:00 20.4 10 Sudoeste 28 Sudoeste 0 834.4 -0.1 43
2019-06-03 13:00:00 20.8 6 Sudoeste 22 Sudoeste 0 834.4 -0.2 40
2019-06-03 12:00:00 18.7 8 Oeste 20 Sur 0 834.5 -0.5 40
2019-06-03 11:00:00 16.6 5 Sudeste 26 Noroeste 0 834.5 0.1 69
2019-06-03 10:00:00 17.2 8 Norte 23 Noroeste 0 834.6 0.2 52
2019-06-03 09:00:00 14.9 7 Noroeste 17 Noroeste 0 835 0.8 67
2019-06-03 08:00:00 12.9 2 Sudeste 7 Sudeste 0 834.4 0 74
2019-06-03 07:00:00 10 4 Sudeste 10 Sudeste 0 834.4 -0.2 79
2019-06-03 06:00:00 9.5 6 Sudeste 10 Sudeste 0 834.2 -0.7 78
2019-06-03 05:00:00 10.1 5 Sudeste 11 Sudeste 0 834.4 -1 77
2019-06-03 04:00:00 10.5 7 Sudeste 11 Sudeste 0 834.6 -0.9 78
2019-06-03 03:00:00 10.4 8 Sudeste 11 Sudeste 0 834.9 -0.8 76
2019-06-03 02:00:00 10.7 7 Sudeste 11 Sudeste 0 835.4 -0.2 81
2019-06-03 01:00:00 11 5 Sudeste 11 Sudeste 0 835.5 0.3 79
2019-06-03 00:00:00 11.2 6 Sudeste 10 Sudeste 0 835.7 0.5 80
2019-06-02 23:00:00 11.8 8 Sudeste 12 Sudeste 0 835.6 0.7 81
2019-06-02 22:00:00 12.4 6 Sudeste 18 Sur 0 835.2 0.2 81
2019-06-02 21:00:00 13.3 13 Sur 23 Sudeste 0 835.2 -0.1 74
2019-06-02 20:00:00 13.6 4 Sur 12 Sudeste 0 834.9 0.2 87
2019-06-02 19:00:00 12.6 5 Sudeste 26 Sudeste 0.2 835 0.3 87
2019-06-02 18:00:00 13.6 10 Sur 25 Sur 4.6 835.3 0.5 77
2019-06-02 17:00:00 18.3 11 Sudeste -- -- -- 834.7 -0.4 55
2019-06-02 16:00:00 19.9 13 Sur 35 Sudeste 0 834.7 -0.6 51
2019-06-02 15:00:00 20.3 10 Sudeste 38 Este 0 834.8 -0.6 52
2019-06-02 14:00:00 20.9 11 Sudoeste 29 Sudoeste 0 835.1 -0.3 50
2019-06-02 13:00:00 19.1 9 Este 22 Norte 0 835.3 0 51
2019-06-02 12:00:00 20 8 Noroeste 12 Noroeste 0 835.4 0.1 40
2019-06-02 11:00:00 19 5 Noroeste 10 Norte 0 835.4 0.2 46
2019-06-02 10:00:00 17.5 4 Norte 7 Norte 0 835.3 0.1 51
2019-06-02 09:00:00 15.2 0 Calma 4 Sudeste 0 835.3 0.1 66
2019-06-02 08:00:00 12 2 Nordeste 9 Sudeste 0 835.2 -0.1 71
2019-06-02 07:00:00 9.2 4 Este 10 Sudeste 0 835.2 -0.5 85
2019-06-02 06:00:00 8.4 6 Sudeste 10 Sudeste 0 835.2 -0.8 84
2019-06-02 05:00:00 8.5 7 Sudeste 10 Sudeste 0 835.3 -1.1 85
2019-06-02 04:00:00 9.8 6 Este 10 Sudeste 0 835.7 -0.9 83
2019-06-02 03:00:00 9.4 6 Sudeste 9 Sudeste 0 836 -0.7 86
2019-06-02 02:00:00 10 6 Sudeste 10 Sudeste 0 836.4 -0.2 83
2019-06-02 01:00:00 10.8 6 Sudeste 10 Sudeste 0 836.6 0.3 79
2019-06-02 00:00:00 11.8 6 Sudeste 9 Sudeste 0 836.7 0.7 76
2019-06-01 23:00:00 11.9 3 Este 8 Sudeste 0 836.6 0.7 76
2019-06-01 22:00:00 13 4 Sudeste 15 Este 0 836.3 0.4 72
2019-06-01 21:00:00 15.6 7 Este 30 Sudeste 0 836 -0.2 62
2019-06-01 20:00:00 17.7 10 Sudeste 25 Sur 0 835.9 -0.4 54
2019-06-01 19:00:00 -- -- -- -- -- -- -- -- --
2019-06-01 18:00:00 -- -- -- -- -- -- -- -- --
2019-06-01 17:00:00 -- -- -- -- -- -- -- -- --
2019-06-01 16:00:00 -- -- -- -- -- -- -- -- --
2019-06-01 15:00:00 -- -- -- -- -- -- -- -- --
2019-06-01 14:00:00 -- -- -- -- -- -- -- -- --
2019-06-01 13:00:00 -- -- -- -- -- -- -- -- --
2019-06-01 12:00:00 -- -- -- -- -- -- -- -- --
2019-06-01 11:00:00 -- -- -- -- -- -- -- -- --
2019-06-01 10:00:00 -- -- -- -- -- -- -- -- --
2019-06-01 09:00:00 -- -- -- -- -- -- -- -- --
2019-06-01 08:00:00 -- -- -- -- -- -- -- -- --
2019-06-01 07:00:00 -- -- -- -- -- -- -- -- --
2019-06-01 06:00:00 -- -- -- -- -- -- -- -- --
2019-06-01 05:00:00 -- -- -- -- -- -- -- -- --
2019-06-01 04:00:00 -- -- -- -- -- -- -- -- --
2019-06-01 03:00:00 -- -- -- -- -- -- -- -- --
2019-06-01 02:00:00 -- -- -- -- -- -- -- -- --
2019-06-01 01:00:00 -- -- -- -- -- -- -- -- --
2019-06-01 00:00:00 -- -- -- -- -- -- -- -- --
2019-05-31 23:00:00 -- -- -- -- -- -- -- -- --
2019-05-31 22:00:00 -- -- -- -- -- -- -- -- --
2019-05-31 21:00:00 -- -- -- -- -- -- -- -- --
2019-05-31 20:00:00 -- -- -- -- -- -- -- -- --
2019-05-31 19:00:00 -- -- -- -- -- -- -- -- --
2019-05-31 18:00:00 -- -- -- -- -- -- -- -- --
2019-05-31 17:00:00 -- -- -- -- -- -- -- -- --
2019-05-31 16:00:00 -- -- -- -- -- -- -- -- --
2019-05-31 15:00:00 -- -- -- -- -- -- -- -- --
2019-05-31 14:00:00 -- -- -- -- -- -- -- -- --
2019-05-31 13:00:00 -- -- -- -- -- -- -- -- --
2019-05-31 12:00:00 -- -- -- -- -- -- -- -- --
2019-05-31 11:00:00 -- -- -- -- -- -- -- -- --
2019-05-31 10:00:00 -- -- -- -- -- -- -- -- --
2019-05-31 09:00:00 -- -- -- -- -- -- -- -- --
2019-05-31 08:00:00 -- -- -- -- -- -- -- -- --
2019-05-31 07:00:00 -- -- -- -- -- -- -- -- --
2019-05-31 06:00:00 -- -- -- -- -- -- -- -- --
2019-05-31 05:00:00 -- -- -- -- -- -- -- -- --
2019-05-31 04:00:00 -- -- -- -- -- -- -- -- --
2019-05-31 03:00:00 -- -- -- -- -- -- -- -- --
2019-05-31 02:00:00 -- -- -- -- -- -- -- -- --
2019-05-31 01:00:00 -- -- -- -- -- -- -- -- --
2019-05-31 00:00:00 -- -- -- -- -- -- -- -- --
2019-05-30 23:00:00 -- -- -- -- -- -- -- -- --
2019-05-30 22:00:00 -- -- -- -- -- -- -- -- --
2019-05-30 21:00:00 -- -- -- -- -- -- -- -- --
2019-05-30 20:00:00 -- -- -- -- -- -- -- -- --
2019-05-30 19:00:00 -- -- -- -- -- -- -- -- --
2019-05-30 18:00:00 -- -- -- -- -- -- -- -- --
2019-05-30 17:00:00 -- -- -- -- -- -- -- -- --
2019-05-30 16:00:00 -- -- -- -- -- -- -- -- --
2019-05-30 15:00:00 -- -- -- -- -- -- -- -- --
2019-05-30 14:00:00 -- -- -- -- -- -- -- -- --
2019-05-30 13:00:00 -- -- -- -- -- -- -- -- --
2019-05-30 12:00:00 -- -- -- -- -- -- -- -- --
2019-05-30 11:00:00 -- -- -- -- -- -- -- -- --
2019-05-30 10:00:00 -- -- -- -- -- -- -- -- --
2019-05-30 09:00:00 -- -- -- -- -- -- -- -- --
2019-05-30 08:00:00 -- -- -- -- -- -- -- -- --
2019-05-30 07:00:00 -- -- -- -- -- -- -- -- --
2019-05-30 06:00:00 -- -- -- -- -- -- -- -- --
2019-05-30 05:00:00 -- -- -- -- -- -- -- -- --
2019-05-30 04:00:00 -- -- -- -- -- -- -- -- --
2019-05-30 03:00:00 -- -- -- -- -- -- -- -- --
2019-05-30 02:00:00 -- -- -- -- -- -- -- -- --
2019-05-30 01:00:00 -- -- -- -- -- -- -- -- --
2019-05-30 00:00:00 -- -- -- -- -- -- -- -- --
2019-05-29 23:00:00 -- -- -- -- -- -- -- -- --
2019-05-29 22:00:00 -- -- -- -- -- -- -- -- --
2019-05-29 21:00:00 -- -- -- -- -- -- -- -- --
2019-05-29 20:00:00 -- -- -- -- -- -- -- -- --
2019-05-29 19:00:00 -- -- -- -- -- -- -- -- --
2019-05-29 18:00:00 -- -- -- -- -- -- -- -- --
2019-05-29 17:00:00 -- -- -- -- -- -- -- -- --
2019-05-29 16:00:00 -- -- -- -- -- -- -- -- --
2019-05-29 15:00:00 -- -- -- -- -- -- -- -- --
2019-05-29 14:00:00 -- -- -- -- -- -- -- -- --
2019-05-29 13:00:00 -- -- -- -- -- -- -- -- --
2019-05-29 12:00:00 -- -- -- -- -- -- -- -- --
2019-05-29 11:00:00 -- -- -- -- -- -- -- -- --
2019-05-29 10:00:00 -- -- -- -- -- -- -- -- --
2019-05-29 09:00:00 -- -- -- -- -- -- -- -- --
2019-05-29 08:00:00 -- -- -- -- -- -- -- -- --
2019-05-29 07:00:00 -- -- -- -- -- -- -- -- --
2019-05-29 06:00:00 -- -- -- -- -- -- -- -- --
2019-05-29 05:00:00 -- -- -- -- -- -- -- -- --
2019-05-29 04:00:00 -- -- -- -- -- -- -- -- --
2019-05-29 03:00:00 -- -- -- -- -- -- -- -- --
2019-05-29 02:00:00 -- -- -- -- -- -- -- -- --
2019-05-29 01:00:00 -- -- -- -- -- -- -- -- --
2019-05-29 00:00:00 -- -- -- -- -- -- -- -- --
2019-05-28 23:00:00 -- -- -- -- -- -- -- -- --
2019-05-28 22:00:00 -- -- -- -- -- -- -- -- --
2019-05-28 21:00:00 -- -- -- -- -- -- -- -- --
2019-05-28 20:00:00 -- -- -- -- -- -- -- -- --
2019-05-28 19:00:00 -- -- -- -- -- -- -- -- --
2019-05-28 18:00:00 -- -- -- -- -- -- -- -- --
2019-05-28 17:00:00 -- -- -- -- -- -- -- -- --
2019-05-28 16:00:00 -- -- -- -- -- -- -- -- --
2019-05-28 15:00:00 -- -- -- -- -- -- -- -- --
2019-05-28 14:00:00 -- -- -- -- -- -- -- -- --
2019-05-28 13:00:00 -- -- -- -- -- -- -- -- --
2019-05-28 12:00:00 -- -- -- -- -- -- -- -- --
2019-05-28 11:00:00 -- -- -- -- -- -- -- -- --
2019-05-28 10:00:00 -- -- -- -- -- -- -- -- --
2019-05-28 09:00:00 -- -- -- -- -- -- -- -- --
2019-05-28 08:00:00 -- -- -- -- -- -- -- -- --
2019-05-28 07:00:00 -- -- -- -- -- -- -- -- --
2019-05-28 06:00:00 -- -- -- -- -- -- -- -- --
2019-05-28 05:00:00 -- -- -- -- -- -- -- -- --
2019-05-28 04:00:00 -- -- -- -- -- -- -- -- --
2019-05-28 03:00:00 -- -- -- -- -- -- -- -- --
2019-05-28 02:00:00 -- -- -- -- -- -- -- -- --
2019-05-28 01:00:00 -- -- -- -- -- -- -- -- --
2019-05-28 00:00:00 -- -- -- -- -- -- -- -- --
2019-05-27 23:00:00 -- -- -- -- -- -- -- -- --
2019-05-27 22:00:00 -- -- -- -- -- -- -- -- --
2019-05-27 21:00:00 -- -- -- -- -- -- -- -- --
2019-05-27 20:00:00 -- -- -- -- -- -- -- -- --
2019-05-27 19:00:00 -- -- -- -- -- -- -- -- --
2019-05-27 18:00:00 -- -- -- -- -- -- -- -- --
2019-05-27 17:00:00 -- -- -- -- -- -- -- -- --
2019-05-27 16:00:00 -- -- -- -- -- -- -- -- --
2019-05-27 15:00:00 -- -- -- -- -- -- -- -- --
2019-05-27 14:00:00 -- -- -- -- -- -- -- -- --
2019-05-27 13:00:00 -- -- -- -- -- -- -- -- --
2019-05-27 12:00:00 -- -- -- -- -- -- -- -- --
2019-05-27 11:00:00 -- -- -- -- -- -- -- -- --
2019-05-27 10:00:00 -- -- -- -- -- -- -- -- --
2019-05-27 09:00:00 -- -- -- -- -- -- -- -- --
2019-05-27 08:00:00 -- -- -- -- -- -- -- -- --
2019-05-27 07:00:00 -- -- -- -- -- -- -- -- --
2019-05-27 06:00:00 -- -- -- -- -- -- -- -- --
2019-05-27 05:00:00 -- -- -- -- -- -- -- -- --
2019-05-27 04:00:00 -- -- -- -- -- -- -- -- --
2019-05-27 03:00:00 -- -- -- -- -- -- -- -- --
2019-05-27 02:00:00 -- -- -- -- -- -- -- -- --
2019-05-27 01:00:00 -- -- -- -- -- -- -- -- --
2019-05-27 00:00:00 -- -- -- -- -- -- -- -- --
2019-05-26 23:00:00 -- -- -- -- -- -- -- -- --
2019-05-26 22:00:00 -- -- -- -- -- -- -- -- --
2019-05-26 21:00:00 -- -- -- -- -- -- -- -- --
2019-05-26 20:00:00 -- -- -- -- -- -- -- -- --
2019-05-26 19:00:00 -- -- -- -- -- -- -- -- --
2019-05-26 18:00:00 -- -- -- -- -- -- -- -- --
2019-05-26 17:00:00 -- -- -- -- -- -- -- -- --
2019-05-26 16:00:00 -- -- -- -- -- -- -- -- --
2019-05-26 15:00:00 -- -- -- -- -- -- -- -- --
2019-05-26 14:00:00 -- -- -- -- -- -- -- -- --
2019-05-26 13:00:00 -- -- -- -- -- -- -- -- --
2019-05-26 12:00:00 -- -- -- -- -- -- -- -- --
2019-05-26 11:00:00 -- -- -- -- -- -- -- -- --
2019-05-26 10:00:00 -- -- -- -- -- -- -- -- --
2019-05-26 09:00:00 -- -- -- -- -- -- -- -- --
2019-05-26 08:00:00 -- -- -- -- -- -- -- -- --
2019-05-26 07:00:00 -- -- -- -- -- -- -- -- --
2019-05-26 06:00:00 -- -- -- -- -- -- -- -- --
2019-05-26 05:00:00 -- -- -- -- -- -- -- -- --
2019-05-26 04:00:00 -- -- -- -- -- -- -- -- --
2019-05-26 03:00:00 -- -- -- -- -- -- -- -- --
2019-05-26 02:00:00 -- -- -- -- -- -- -- -- --
2019-05-26 01:00:00 -- -- -- -- -- -- -- -- --
2019-05-26 00:00:00 -- -- -- -- -- -- -- -- --
2019-05-25 23:00:00 -- -- -- -- -- -- -- -- --
2019-05-25 22:00:00 -- -- -- -- -- -- -- -- --
2019-05-25 21:00:00 -- -- -- -- -- -- -- -- --
2019-05-25 20:00:00 -- -- -- -- -- -- -- -- --
2019-05-25 19:00:00 -- -- -- -- -- -- -- -- --
2019-05-25 18:00:00 -- -- -- -- -- -- -- -- --
2019-05-25 17:00:00 -- -- -- -- -- -- -- -- --
2019-05-25 16:00:00 -- -- -- -- -- -- -- -- --
2019-05-25 15:00:00 -- -- -- -- -- -- -- -- --
2019-05-25 14:00:00 -- -- -- -- -- -- -- -- --
2019-05-25 13:00:00 -- -- -- -- -- -- -- -- --
2019-05-25 12:00:00 -- -- -- -- -- -- -- -- --
2019-05-25 11:00:00 -- -- -- -- -- -- -- -- --
2019-05-25 10:00:00 -- -- -- -- -- -- -- -- --
2019-05-25 09:00:00 -- -- -- -- -- -- -- -- --
2019-05-25 08:00:00 -- -- -- -- -- -- -- -- --
2019-05-25 07:00:00 -- -- -- -- -- -- -- -- --
2019-05-25 06:00:00 -- -- -- -- -- -- -- -- --
2019-05-25 05:00:00 -- -- -- -- -- -- -- -- --
2019-05-25 04:00:00 -- -- -- -- -- -- -- -- --
2019-05-25 03:00:00 -- -- -- -- -- -- -- -- --
2019-05-25 02:00:00 -- -- -- -- -- -- -- -- --
2019-05-25 01:00:00 -- -- -- -- -- -- -- -- --
2019-05-25 00:00:00 -- -- -- -- -- -- -- -- --